sensor_id;sensor_type;location;lat;lon;timestamp;pressure;altitude;pressure_sealevel;temperature;humidity
47082;BME280;33066;49.296;14.470;2023-05-07T00:00:58;97078.19;;;18.86;36.66
47082;BME280;33066;49.296;14.470;2023-05-07T00:03:23;97078.58;;;18.82;36.74
47082;BME280;33066;49.296;14.470;2023-05-07T00:05:48;97082.26;;;19.06;36.59
47082;BME280;33066;49.296;14.470;2023-05-07T00:08:14;97083.00;;;18.83;36.30
47082;BME280;33066;49.296;14.470;2023-05-07T00:10:40;97083.86;;;18.81;36.71
47082;BME280;33066;49.296;14.470;2023-05-07T00:13:07;97087.23;;;19.01;36.58
47082;BME280;33066;49.296;14.470;2023-05-07T00:15:32;97083.82;;;19.00;36.65
47082;BME280;33066;49.296;14.470;2023-05-07T00:17:56;97084.10;;;18.71;37.04
47082;BME280;33066;49.296;14.470;2023-05-07T00:20:21;97084.48;;;18.91;37.37
47082;BME280;33066;49.296;14.470;2023-05-07T00:22:47;97087.14;;;18.71;37.05
47082;BME280;33066;49.296;14.470;2023-05-07T00:25:13;97088.99;;;19.05;36.76
47082;BME280;33066;49.296;14.470;2023-05-07T00:27:38;97089.13;;;18.67;36.52
47082;BME280;33066;49.296;14.470;2023-05-07T00:30:05;97087.08;;;18.63;36.56
47082;BME280;33066;49.296;14.470;2023-05-07T00:32:29;97085.08;;;18.63;36.56
47082;BME280;33066;49.296;14.470;2023-05-07T00:34:55;97086.50;;;18.65;36.55
47082;BME280;33066;49.296;14.470;2023-05-07T00:37:20;97091.17;;;18.64;36.51
47082;BME280;33066;49.296;14.470;2023-05-07T00:39:45;97094.07;;;18.69;36.54
47082;BME280;33066;49.296;14.470;2023-05-07T00:42:11;97093.38;;;18.67;36.55
47082;BME280;33066;49.296;14.470;2023-05-07T00:44:36;97094.75;;;18.28;36.68
47082;BME280;33066;49.296;14.470;2023-05-07T00:47:02;97093.48;;;18.44;36.78
47082;BME280;33066;49.296;14.470;2023-05-07T00:49:35;97091.62;;;18.62;36.93
47082;BME280;33066;49.296;14.470;2023-05-07T00:51:52;97094.03;;;18.65;36.81
47082;BME280;33066;49.296;14.470;2023-05-07T00:54:17;97097.74;;;18.36;36.76
47082;BME280;33066;49.296;14.470;2023-05-07T00:56:44;97101.21;;;18.34;36.87
47082;BME280;33066;49.296;14.470;2023-05-07T00:59:08;97106.94;;;18.34;37.01
47082;BME280;33066;49.296;14.470;2023-05-07T01:01:34;97108.32;;;18.39;37.14
47082;BME280;33066;49.296;14.470;2023-05-07T01:03:59;97106.35;;;18.15;37.28
47082;BME280;33066;49.296;14.470;2023-05-07T01:06:26;97109.91;;;18.20;37.28
47082;BME280;33066;49.296;14.470;2023-05-07T01:08:51;97111.57;;;18.51;37.09
47082;BME280;33066;49.296;14.470;2023-05-07T01:11:17;97113.36;;;18.41;37.07
47082;BME280;33066;49.296;14.470;2023-05-07T01:13:42;97114.40;;;18.44;37.08
47082;BME280;33066;49.296;14.470;2023-05-07T01:16:09;97121.66;;;18.37;36.80
47082;BME280;33066;49.296;14.470;2023-05-07T01:18:32;97128.31;;;18.23;37.00
47082;BME280;33066;49.296;14.470;2023-05-07T01:20:59;97126.57;;;18.05;37.07
47082;BME280;33066;49.296;14.470;2023-05-07T01:23:25;97124.29;;;18.10;37.12
47082;BME280;33066;49.296;14.470;2023-05-07T01:25:53;97123.09;;;18.20;37.00
47082;BME280;33066;49.296;14.470;2023-05-07T01:28:15;97122.24;;;18.43;36.84
47082;BME280;33066;49.296;14.470;2023-05-07T01:30:42;97122.21;;;18.45;36.90
47082;BME280;33066;49.296;14.470;2023-05-07T01:33:11;97122.02;;;18.16;37.01
47082;BME280;33066;49.296;14.470;2023-05-07T01:35:36;97118.77;;;18.17;36.96
47082;BME280;33066;49.296;14.470;2023-05-07T01:37:57;97117.53;;;18.41;37.30
47082;BME280;33066;49.296;14.470;2023-05-07T01:40:23;97122.76;;;18.35;37.40
47082;BME280;33066;49.296;14.470;2023-05-07T01:42:48;97128.41;;;18.35;37.24
47082;BME280;33066;49.296;14.470;2023-05-07T01:45:13;97130.33;;;18.41;37.02
47082;BME280;33066;49.296;14.470;2023-05-07T01:47:39;97132.05;;;18.12;37.00
47082;BME280;33066;49.296;14.470;2023-05-07T01:50:06;97130.74;;;18.36;36.99
47082;BME280;33066;49.296;14.470;2023-05-07T01:52:29;97133.97;;;18.33;36.76
47082;BME280;33066;49.296;14.470;2023-05-07T01:54:54;97135.19;;;18.07;36.96
47082;BME280;33066;49.296;14.470;2023-05-07T01:57:20;97132.75;;;18.06;36.86
47082;BME280;33066;49.296;14.470;2023-05-07T01:59:45;97132.58;;;18.20;36.87
47082;BME280;33066;49.296;14.470;2023-05-07T02:02:11;97132.74;;;18.22;36.86
47082;BME280;33066;49.296;14.470;2023-05-07T02:04:37;97135.55;;;18.17;36.91
47082;BME280;33066;49.296;14.470;2023-05-07T02:07:01;97135.75;;;18.18;37.04
47082;BME280;33066;49.296;14.470;2023-05-07T02:09:27;97131.53;;;18.20;36.89
47082;BME280;33066;49.296;14.470;2023-05-07T02:11:53;97134.95;;;18.17;36.89
47082;BME280;33066;49.296;14.470;2023-05-07T02:14:18;97142.44;;;18.15;36.90
47082;BME280;33066;49.296;14.470;2023-05-07T02:16:44;97145.31;;;18.13;36.92
47082;BME280;33066;49.296;14.470;2023-05-07T02:19:09;97148.34;;;18.13;36.72
47082;BME280;33066;49.296;14.470;2023-05-07T02:21:35;97143.05;;;18.07;36.89
47082;BME280;33066;49.296;14.470;2023-05-07T02:24:01;97138.11;;;18.06;36.93
47082;BME280;33066;49.296;14.470;2023-05-07T02:26:27;97138.12;;;18.06;36.96
47082;BME280;33066;49.296;14.470;2023-05-07T02:28:52;97137.80;;;18.08;37.04
47082;BME280;33066;49.296;14.470;2023-05-07T02:31:17;97135.18;;;18.03;37.13
47082;BME280;33066;49.296;14.470;2023-05-07T02:33:43;97134.27;;;18.04;36.93
47082;BME280;33066;49.296;14.470;2023-05-07T02:36:10;97131.42;;;17.95;37.04
47082;BME280;33066;49.296;14.470;2023-05-07T02:38:34;97130.99;;;18.12;36.92
47082;BME280;33066;49.296;14.470;2023-05-07T02:40:59;97128.24;;;17.87;36.98
47082;BME280;33066;49.296;14.470;2023-05-07T02:43:25;97129.49;;;17.88;36.92
47082;BME280;33066;49.296;14.470;2023-05-07T02:46:01;97124.92;;;17.87;36.95
47082;BME280;33066;49.296;14.470;2023-05-07T02:48:16;97120.68;;;17.89;37.06
47082;BME280;33066;49.296;14.470;2023-05-07T02:50:41;97117.93;;;17.86;37.07
47082;BME280;33066;49.296;14.470;2023-05-07T02:53:07;97119.27;;;17.85;37.00
47082;BME280;33066;49.296;14.470;2023-05-07T02:55:32;97119.23;;;17.82;36.95
47082;BME280;33066;49.296;14.470;2023-05-07T02:57:58;97122.00;;;18.01;37.01
47082;BME280;33066;49.296;14.470;2023-05-07T03:00:24;97125.50;;;17.55;37.02
47082;BME280;33066;49.296;14.470;2023-05-07T03:02:49;97130.56;;;17.79;37.24
47082;BME280;33066;49.296;14.470;2023-05-07T03:05:15;97132.80;;;17.79;38.00
47082;BME280;33066;49.296;14.470;2023-05-07T03:07:40;97131.00;;;17.85;38.59
47082;BME280;33066;49.296;14.470;2023-05-07T03:13:01;97127.78;;;18.24;37.44
47082;BME280;33066;49.296;14.470;2023-05-07T03:15:25;97129.65;;;17.96;37.80
47082;BME280;33066;49.296;14.470;2023-05-07T03:17:50;97130.59;;;18.12;37.54
47082;BME280;33066;49.296;14.470;2023-05-07T03:20:16;97135.07;;;18.05;38.47
47082;BME280;33066;49.296;14.470;2023-05-07T03:22:42;97131.73;;;18.06;38.15
47082;BME280;33066;49.296;14.470;2023-05-07T03:25:10;97136.01;;;17.97;38.25
47082;BME280;33066;49.296;14.470;2023-05-07T03:27:33;97135.38;;;17.99;38.32
47082;BME280;33066;49.296;14.470;2023-05-07T03:29:59;97137.31;;;18.03;37.93
47082;BME280;33066;49.296;14.470;2023-05-07T03:32:24;97138.36;;;18.03;37.86
47082;BME280;33066;49.296;14.470;2023-05-07T03:34:50;97139.28;;;18.01;37.44
47082;BME280;33066;49.296;14.470;2023-05-07T03:37:15;97135.61;;;18.05;37.54
47082;BME280;33066;49.296;14.470;2023-05-07T03:39:41;97134.49;;;18.02;37.53
47082;BME280;33066;49.296;14.470;2023-05-07T03:42:08;97134.86;;;18.00;37.25
47082;BME280;33066;49.296;14.470;2023-05-07T03:44:32;97138.87;;;17.96;37.23
47082;BME280;33066;49.296;14.470;2023-05-07T03:46:59;97141.47;;;17.92;37.23
47082;BME280;33066;49.296;14.470;2023-05-07T03:49:23;97144.08;;;17.93;37.22
47082;BME280;33066;49.296;14.470;2023-05-07T03:51:50;97147.02;;;17.95;37.70
47082;BME280;33066;49.296;14.470;2023-05-07T03:54:14;97143.78;;;17.93;37.25
47082;BME280;33066;49.296;14.470;2023-05-07T03:56:40;97142.42;;;17.90;37.22
47082;BME280;33066;49.296;14.470;2023-05-07T03:59:06;97145.40;;;17.81;37.55
47082;BME280;33066;49.296;14.470;2023-05-07T04:01:31;97141.89;;;17.83;37.49
47082;BME280;33066;49.296;14.470;2023-05-07T04:03:56;97141.34;;;17.80;37.18
47082;BME280;33066;49.296;14.470;2023-05-07T04:06:21;97147.95;;;17.73;37.22
47082;BME280;33066;49.296;14.470;2023-05-07T04:08:47;97150.03;;;17.77;37.32
47082;BME280;33066;49.296;14.470;2023-05-07T04:11:12;97152.52;;;17.75;37.31
47082;BME280;33066;49.296;14.470;2023-05-07T04:13:38;97152.84;;;18.13;37.27
47082;BME280;33066;49.296;14.470;2023-05-07T04:16:04;97153.65;;;17.86;37.11
47082;BME280;33066;49.296;14.470;2023-05-07T04:18:29;97155.11;;;17.84;37.17
47082;BME280;33066;49.296;14.470;2023-05-07T04:20:56;97153.11;;;17.93;37.04
47082;BME280;33066;49.296;14.470;2023-05-07T04:23:20;97158.08;;;17.93;36.91
47082;BME280;33066;49.296;14.470;2023-05-07T04:25:46;97161.94;;;17.84;36.76
47082;BME280;33066;49.296;14.470;2023-05-07T04:28:12;97161.85;;;17.74;36.75
47082;BME280;33066;49.296;14.470;2023-05-07T04:30:38;97164.16;;;17.77;36.75
47082;BME280;33066;49.296;14.470;2023-05-07T04:33:04;97167.97;;;18.29;36.73
47082;BME280;33066;49.296;14.470;2023-05-07T04:35:29;97171.73;;;17.77;36.75
47082;BME280;33066;49.296;14.470;2023-05-07T04:37:55;97174.68;;;17.74;36.84
47082;BME280;33066;49.296;14.470;2023-05-07T04:40:20;97183.15;;;17.71;36.68
47082;BME280;33066;49.296;14.470;2023-05-07T04:42:46;97179.27;;;17.71;36.68
47082;BME280;33066;49.296;14.470;2023-05-07T04:45:11;97184.50;;;17.77;36.75
47082;BME280;33066;49.296;14.470;2023-05-07T04:47:37;97193.39;;;17.71;36.84
47082;BME280;33066;49.296;14.470;2023-05-07T04:50:02;97198.88;;;17.61;36.76
47082;BME280;33066;49.296;14.470;2023-05-07T04:52:27;97198.84;;;17.81;36.69
47082;BME280;33066;49.296;14.470;2023-05-07T04:54:53;97200.89;;;17.52;36.70
47082;BME280;33066;49.296;14.470;2023-05-07T04:57:19;97202.27;;;17.50;36.89
47082;BME280;33066;49.296;14.470;2023-05-07T04:59:44;97204.14;;;17.49;36.84
47082;BME280;33066;49.296;14.470;2023-05-07T05:02:10;97202.90;;;17.79;36.99
47082;BME280;33066;49.296;14.470;2023-05-07T05:04:35;97200.27;;;17.64;37.46
47082;BME280;33066;49.296;14.470;2023-05-07T05:07:01;97198.09;;;17.69;37.11
47082;BME280;33066;49.296;14.470;2023-05-07T05:09:26;97202.40;;;17.75;37.33
47082;BME280;33066;49.296;14.470;2023-05-07T05:11:52;97207.27;;;17.85;37.11
47082;BME280;33066;49.296;14.470;2023-05-07T05:14:17;97211.98;;;17.89;37.51
47082;BME280;33066;49.296;14.470;2023-05-07T05:16:43;97213.15;;;17.86;37.00
47082;BME280;33066;49.296;14.470;2023-05-07T05:19:07;97215.92;;;17.67;37.19
47082;BME280;33066;49.296;14.470;2023-05-07T05:21:32;97216.49;;;17.72;37.66
47082;BME280;33066;49.296;14.470;2023-05-07T05:23:58;97218.66;;;17.49;37.57
47082;BME280;33066;49.296;14.470;2023-05-07T05:26:23;97219.61;;;17.57;37.39
47082;BME280;33066;49.296;14.470;2023-05-07T05:28:48;97220.42;;;17.63;37.16
47082;BME280;33066;49.296;14.470;2023-05-07T05:31:14;97223.82;;;17.69;37.10
47082;BME280;33066;49.296;14.470;2023-05-07T05:33:39;97226.52;;;17.79;36.98
47082;BME280;33066;49.296;14.470;2023-05-07T05:36:05;97226.58;;;18.28;36.78
47082;BME280;33066;49.296;14.470;2023-05-07T05:38:30;97227.40;;;17.87;36.66
47082;BME280;33066;49.296;14.470;2023-05-07T05:40:55;97225.87;;;17.91;36.48
47082;BME280;33066;49.296;14.470;2023-05-07T05:43:21;97221.95;;;18.32;35.93
47082;BME280;33066;49.296;14.470;2023-05-07T05:45:46;97222.70;;;18.06;35.92
47082;BME280;33066;49.296;14.470;2023-05-07T05:48:13;97229.87;;;18.24;36.06
47082;BME280;33066;49.296;14.470;2023-05-07T05:50:37;97236.19;;;18.07;35.88
47082;BME280;33066;49.296;14.470;2023-05-07T05:53:02;97236.77;;;17.87;35.87
47082;BME280;33066;49.296;14.470;2023-05-07T05:55:28;97237.28;;;17.87;36.27
47082;BME280;33066;49.296;14.470;2023-05-07T05:57:53;97243.19;;;18.04;36.27
47082;BME280;33066;49.296;14.470;2023-05-07T06:00:18;97242.25;;;17.81;36.18
47082;BME280;33066;49.296;14.470;2023-05-07T06:02:44;97244.61;;;17.82;35.89
47082;BME280;33066;49.296;14.470;2023-05-07T06:05:10;97245.84;;;17.77;35.88
47082;BME280;33066;49.296;14.470;2023-05-07T06:07:35;97241.39;;;17.73;36.02
47082;BME280;33066;49.296;14.470;2023-05-07T06:10:00;97242.83;;;17.83;36.22
47082;BME280;33066;49.296;14.470;2023-05-07T06:12:25;97243.28;;;17.64;36.08
47082;BME280;33066;49.296;14.470;2023-05-07T06:14:50;97245.67;;;17.74;35.99
47082;BME280;33066;49.296;14.470;2023-05-07T06:17:16;97247.51;;;17.73;36.04
47082;BME280;33066;49.296;14.470;2023-05-07T06:19:40;97250.38;;;17.75;36.00
47082;BME280;33066;49.296;14.470;2023-05-07T06:22:06;97253.21;;;17.95;36.18
47082;BME280;33066;49.296;14.470;2023-05-07T06:24:32;97257.22;;;17.79;36.12
47082;BME280;33066;49.296;14.470;2023-05-07T06:26:56;97259.55;;;17.64;35.81
47082;BME280;33066;49.296;14.470;2023-05-07T06:29:22;97260.90;;;17.97;35.69
47082;BME280;33066;49.296;14.470;2023-05-07T06:31:47;97261.46;;;18.01;35.84
47082;BME280;33066;49.296;14.470;2023-05-07T06:34:13;97261.00;;;18.12;35.47
47082;BME280;33066;49.296;14.470;2023-05-07T06:36:38;97260.89;;;18.20;35.13
47082;BME280;33066;49.296;14.470;2023-05-07T06:39:03;97262.94;;;18.24;35.36
47082;BME280;33066;49.296;14.470;2023-05-07T06:41:28;97265.97;;;18.27;35.54
47082;BME280;33066;49.296;14.470;2023-05-07T06:43:53;97267.20;;;18.31;35.36
47082;BME280;33066;49.296;14.470;2023-05-07T06:46:19;97273.29;;;18.13;35.19
47082;BME280;33066;49.296;14.470;2023-05-07T06:48:45;97277.42;;;18.11;35.14
47082;BME280;33066;49.296;14.470;2023-05-07T06:51:10;97276.33;;;17.99;34.96
47082;BME280;33066;49.296;14.470;2023-05-07T06:53:36;97274.17;;;18.16;35.36
47082;BME280;33066;49.296;14.470;2023-05-07T06:56:02;97278.56;;;18.30;35.47
47082;BME280;33066;49.296;14.470;2023-05-07T06:58:27;97279.40;;;18.41;35.05
47082;BME280;33066;49.296;14.470;2023-05-07T07:00:53;97280.72;;;18.36;34.84
47082;BME280;33066;49.296;14.470;2023-05-07T07:03:18;97279.50;;;18.27;35.09
47082;BME280;33066;49.296;14.470;2023-05-07T07:05:44;97280.31;;;18.31;34.98
47082;BME280;33066;49.296;14.470;2023-05-07T07:08:10;97283.22;;;18.13;34.85
47082;BME280;33066;49.296;14.470;2023-05-07T07:10:35;97285.19;;;18.37;34.91
47082;BME280;33066;49.296;14.470;2023-05-07T07:13:00;97285.71;;;18.23;34.97
47082;BME280;33066;49.296;14.470;2023-05-07T07:15:26;97281.46;;;18.06;34.98
47082;BME280;33066;49.296;14.470;2023-05-07T07:17:51;97280.03;;;18.06;34.87
47082;BME280;33066;49.296;14.470;2023-05-07T07:20:16;97279.26;;;18.56;35.14
47082;BME280;33066;49.296;14.470;2023-05-07T07:22:41;97278.28;;;18.64;35.06
47082;BME280;33066;49.296;14.470;2023-05-07T07:25:07;97278.78;;;18.81;34.78
47082;BME280;33066;49.296;14.470;2023-05-07T07:27:32;97280.63;;;18.59;34.89
47082;BME280;33066;49.296;14.470;2023-05-07T07:29:58;97278.06;;;18.93;34.52
47082;BME280;33066;49.296;14.470;2023-05-07T07:32:24;97276.83;;;18.96;34.67
47082;BME280;33066;49.296;14.470;2023-05-07T07:34:49;97281.33;;;18.81;34.51
47082;BME280;33066;49.296;14.470;2023-05-07T07:37:15;97279.19;;;18.91;34.39
47082;BME280;33066;49.296;14.470;2023-05-07T07:39:40;97280.19;;;18.82;34.27
47082;BME280;33066;49.296;14.470;2023-05-07T07:42:06;97281.06;;;18.66;34.23
47082;BME280;33066;49.296;14.470;2023-05-07T07:44:31;97285.06;;;18.95;34.05
47082;BME280;33066;49.296;14.470;2023-05-07T07:46:57;97290.98;;;19.11;34.15
47082;BME280;33066;49.296;14.470;2023-05-07T07:49:22;97294.90;;;19.16;34.00
47082;BME280;33066;49.296;14.470;2023-05-07T07:51:48;97296.92;;;19.04;33.82
47082;BME280;33066;49.296;14.470;2023-05-07T07:54:14;97299.17;;;19.25;33.75
47082;BME280;33066;49.296;14.470;2023-05-07T07:56:39;97299.11;;;19.03;33.74
47082;BME280;33066;49.296;14.470;2023-05-07T07:59:05;97299.17;;;19.36;33.90
47082;BME280;33066;49.296;14.470;2023-05-07T08:01:30;97294.76;;;19.11;33.82
47082;BME280;33066;49.296;14.470;2023-05-07T08:03:57;97297.66;;;19.20;33.89
47082;BME280;33066;49.296;14.470;2023-05-07T08:06:20;97301.82;;;19.55;33.69
47082;BME280;33066;49.296;14.470;2023-05-07T08:08:46;97303.51;;;19.33;33.34
47082;BME280;33066;49.296;14.470;2023-05-07T08:11:11;97308.19;;;19.29;33.21
47082;BME280;33066;49.296;14.470;2023-05-07T08:13:38;97310.22;;;19.49;32.97
47082;BME280;33066;49.296;14.470;2023-05-07T08:16:04;97311.60;;;19.55;33.35
47082;BME280;33066;49.296;14.470;2023-05-07T08:18:29;97312.61;;;19.35;33.45
47082;BME280;33066;49.296;14.470;2023-05-07T08:20:54;97316.18;;;19.37;33.56
47082;BME280;33066;49.296;14.470;2023-05-07T08:23:20;97317.46;;;19.64;33.69
47082;BME280;33066;49.296;14.470;2023-05-07T08:25:45;97319.03;;;19.38;33.52
47082;BME280;33066;49.296;14.470;2023-05-07T08:28:12;97322.82;;;19.31;33.43
47082;BME280;33066;49.296;14.470;2023-05-07T08:30:36;97323.30;;;19.24;34.00
47082;BME280;33066;49.296;14.470;2023-05-07T08:33:02;97323.44;;;19.18;33.76
47082;BME280;33066;49.296;14.470;2023-05-07T08:35:27;97323.74;;;19.16;33.76
47082;BME280;33066;49.296;14.470;2023-05-07T08:37:51;97322.73;;;19.28;34.03
47082;BME280;33066;49.296;14.470;2023-05-07T08:40:17;97324.70;;;19.34;33.85
47082;BME280;33066;49.296;14.470;2023-05-07T08:42:44;97322.35;;;19.34;33.72
47082;BME280;33066;49.296;14.470;2023-05-07T08:45:10;97327.58;;;19.49;33.83
47082;BME280;33066;49.296;14.470;2023-05-07T08:47:40;97330.04;;;19.59;33.75
47082;BME280;33066;49.296;14.470;2023-05-07T08:50:01;97330.16;;;19.64;33.45
47082;BME280;33066;49.296;14.470;2023-05-07T08:52:26;97328.61;;;19.51;33.48
47082;BME280;33066;49.296;14.470;2023-05-07T08:54:51;97327.72;;;19.57;33.26
47082;BME280;33066;49.296;14.470;2023-05-07T08:57:16;97326.44;;;19.69;33.38
47082;BME280;33066;49.296;14.470;2023-05-07T08:59:41;97329.77;;;19.79;33.08
47082;BME280;33066;49.296;14.470;2023-05-07T09:02:09;97330.00;;;19.91;32.97
47082;BME280;33066;49.296;14.470;2023-05-07T09:04:33;97333.02;;;20.30;32.71
47082;BME280;33066;49.296;14.470;2023-05-07T09:06:58;97334.08;;;20.06;32.46
47082;BME280;33066;49.296;14.470;2023-05-07T09:09:23;97334.94;;;19.86;32.45
47082;BME280;33066;49.296;14.470;2023-05-07T09:11:49;97337.24;;;20.04;32.28
47082;BME280;33066;49.296;14.470;2023-05-07T09:14:14;97340.00;;;20.33;32.37
47082;BME280;33066;49.296;14.470;2023-05-07T09:16:41;97341.42;;;19.95;32.33
47082;BME280;33066;49.296;14.470;2023-05-07T09:19:05;97343.82;;;20.51;32.32
47082;BME280;33066;49.296;14.470;2023-05-07T09:21:30;97343.23;;;20.30;32.15
47082;BME280;33066;49.296;14.470;2023-05-07T09:23:56;97344.27;;;20.54;32.09
47082;BME280;33066;49.296;14.470;2023-05-07T09:26:21;97346.46;;;20.21;32.01
47082;BME280;33066;49.296;14.470;2023-05-07T09:28:47;97349.27;;;20.36;32.17
47082;BME280;33066;49.296;14.470;2023-05-07T09:31:12;97344.38;;;20.13;32.05
47082;BME280;33066;49.296;14.470;2023-05-07T09:33:39;97342.62;;;20.01;31.54
47082;BME280;33066;49.296;14.470;2023-05-07T09:36:05;97343.77;;;20.31;31.74
47082;BME280;33066;49.296;14.470;2023-05-07T09:38:30;97343.11;;;20.09;31.49
47082;BME280;33066;49.296;14.470;2023-05-07T09:41:02;97344.60;;;20.50;31.28
47082;BME280;33066;49.296;14.470;2023-05-07T09:43:19;97338.37;;;19.94;31.57
47082;BME280;33066;49.296;14.470;2023-05-07T09:45:46;97337.98;;;20.33;31.87
47082;BME280;33066;49.296;14.470;2023-05-07T09:48:10;97336.39;;;20.46;31.15
47082;BME280;33066;49.296;14.470;2023-05-07T09:50:39;97333.61;;;20.11;31.36
47082;BME280;33066;49.296;14.470;2023-05-07T09:53:01;97331.85;;;20.13;31.25
47082;BME280;33066;49.296;14.470;2023-05-07T09:55:27;97327.91;;;20.37;31.01
47082;BME280;33066;49.296;14.470;2023-05-07T09:57:53;97323.78;;;20.36;31.05
47082;BME280;33066;49.296;14.470;2023-05-07T10:00:18;97325.39;;;20.68;30.97
47082;BME280;33066;49.296;14.470;2023-05-07T10:02:45;97332.12;;;21.08;31.19
47082;BME280;33066;49.296;14.470;2023-05-07T10:05:09;97329.19;;;21.33;30.62
47082;BME280;33066;49.296;14.470;2023-05-07T10:07:34;97325.27;;;21.55;30.13
47082;BME280;33066;49.296;14.470;2023-05-07T10:09:59;97323.32;;;21.39;30.19
47082;BME280;33066;49.296;14.470;2023-05-07T10:12:25;97322.31;;;21.38;30.04
47082;BME280;33066;49.296;14.470;2023-05-07T10:14:50;97324.03;;;21.14;30.26
47082;BME280;33066;49.296;14.470;2023-05-07T10:17:16;97323.67;;;21.68;30.03
47082;BME280;33066;49.296;14.470;2023-05-07T10:19:41;97323.78;;;21.51;30.10
47082;BME280;33066;49.296;14.470;2023-05-07T10:22:06;97321.21;;;22.44;29.62
47082;BME280;33066;49.296;14.470;2023-05-07T10:24:32;97320.33;;;22.28;29.32
47082;BME280;33066;49.296;14.470;2023-05-07T10:26:56;97319.35;;;22.56;29.42
47082;BME280;33066;49.296;14.470;2023-05-07T10:29:37;97318.41;;;22.19;29.01
47082;BME280;33066;49.296;14.470;2023-05-07T10:31:55;97316.30;;;22.04;28.95
47082;BME280;33066;49.296;14.470;2023-05-07T10:34:16;97315.04;;;22.20;29.04
47082;BME280;33066;49.296;14.470;2023-05-07T10:36:38;97312.60;;;22.09;29.07
47082;BME280;33066;49.296;14.470;2023-05-07T10:39:05;97310.01;;;22.30;29.08
47082;BME280;33066;49.296;14.470;2023-05-07T10:41:28;97314.64;;;21.71;29.18
47082;BME280;33066;49.296;14.470;2023-05-07T10:43:53;97316.72;;;21.97;30.15
47082;BME280;33066;49.296;14.470;2023-05-07T10:46:22;97308.80;;;22.37;29.13
47082;BME280;33066;49.296;14.470;2023-05-07T10:51:19;97308.77;;;23.06;28.34
47082;BME280;33066;49.296;14.470;2023-05-07T10:53:36;97297.55;;;23.46;28.05
47082;BME280;33066;49.296;14.470;2023-05-07T10:58:27;97296.08;;;23.52;26.81
47082;BME280;33066;49.296;14.470;2023-05-07T11:00:56;97292.83;;;24.18;27.36
47082;BME280;33066;49.296;14.470;2023-05-07T11:03:17;97292.89;;;24.03;27.52
47082;BME280;33066;49.296;14.470;2023-05-07T11:05:42;97293.04;;;24.00;27.24
47082;BME280;33066;49.296;14.470;2023-05-07T11:08:08;97294.88;;;24.11;26.72
47082;BME280;33066;49.296;14.470;2023-05-07T11:10:49;97292.65;;;22.99;26.65
47082;BME280;33066;49.296;14.470;2023-05-07T11:12:59;97289.96;;;24.70;26.71
47082;BME280;33066;49.296;14.470;2023-05-07T11:15:34;97290.69;;;24.88;26.71
47082;BME280;33066;49.296;14.470;2023-05-07T11:17:54;97293.41;;;24.74;26.62
47082;BME280;33066;49.296;14.470;2023-05-07T11:20:17;97294.13;;;24.75;26.48
47082;BME280;33066;49.296;14.470;2023-05-07T11:22:40;97285.38;;;25.38;26.39
47082;BME280;33066;49.296;14.470;2023-05-07T11:25:06;97285.39;;;24.85;25.89
47082;BME280;33066;49.296;14.470;2023-05-07T11:27:32;97283.93;;;24.78;26.02
47082;BME280;33066;49.296;14.470;2023-05-07T11:29:57;97283.88;;;24.94;26.19
47082;BME280;33066;49.296;14.470;2023-05-07T11:32:22;97280.11;;;25.16;25.57
47082;BME280;33066;49.296;14.470;2023-05-07T11:34:51;97283.39;;;25.54;26.40
47082;BME280;33066;49.296;14.470;2023-05-07T11:37:18;97281.98;;;25.85;25.36
47082;BME280;33066;49.296;14.470;2023-05-07T11:39:39;97279.18;;;26.00;25.84
47082;BME280;33066;49.296;14.470;2023-05-07T11:42:05;97275.05;;;25.82;25.91
47082;BME280;33066;49.296;14.470;2023-05-07T11:44:41;97271.65;;;25.80;25.41
47082;BME280;33066;49.296;14.470;2023-05-07T11:46:56;97266.30;;;25.93;25.16
47082;BME280;33066;49.296;14.470;2023-05-07T11:49:25;97256.75;;;26.10;25.03
47082;BME280;33066;49.296;14.470;2023-05-07T11:51:47;97262.40;;;26.36;25.58
47082;BME280;33066;49.296;14.470;2023-05-07T11:54:16;97263.73;;;26.05;24.79
47082;BME280;33066;49.296;14.470;2023-05-07T11:56:39;97260.69;;;26.39;24.77
47082;BME280;33066;49.296;14.470;2023-05-07T11:59:03;97260.77;;;26.92;24.94
47082;BME280;33066;49.296;14.470;2023-05-07T12:01:29;97256.94;;;27.04;23.51
47082;BME280;33066;49.296;14.470;2023-05-07T12:03:54;97252.30;;;27.01;23.63
47082;BME280;33066;49.296;14.470;2023-05-07T12:06:19;97258.34;;;26.86;22.90
47082;BME280;33066;49.296;14.470;2023-05-07T12:08:46;97257.09;;;26.80;23.01
47082;BME280;33066;49.296;14.470;2023-05-07T12:11:15;97256.04;;;26.98;23.09
47082;BME280;33066;49.296;14.470;2023-05-07T12:13:35;97255.62;;;26.73;23.14
47082;BME280;33066;49.296;14.470;2023-05-07T12:16:02;97257.38;;;27.12;22.89
47082;BME280;33066;49.296;14.470;2023-05-07T12:18:27;97254.50;;;27.14;22.84
47082;BME280;33066;49.296;14.470;2023-05-07T12:20:53;97256.68;;;27.43;23.39
47082;BME280;33066;49.296;14.470;2023-05-07T12:23:19;97256.43;;;27.68;23.35
47082;BME280;33066;49.296;14.470;2023-05-07T12:25:44;97254.48;;;27.82;22.21
47082;BME280;33066;49.296;14.470;2023-05-07T12:28:14;97248.34;;;28.07;22.29
47082;BME280;33066;49.296;14.470;2023-05-07T12:30:37;97249.09;;;27.84;22.13
47082;BME280;33066;49.296;14.470;2023-05-07T12:33:00;97246.57;;;27.66;22.33
47082;BME280;33066;49.296;14.470;2023-05-07T12:35:27;97239.43;;;27.82;22.14
47082;BME280;33066;49.296;14.470;2023-05-07T12:37:55;97237.12;;;28.00;22.04
47082;BME280;33066;49.296;14.470;2023-05-07T12:40:17;97237.56;;;28.09;21.78
47082;BME280;33066;49.296;14.470;2023-05-07T12:42:43;97243.26;;;28.47;21.25
47082;BME280;33066;49.296;14.470;2023-05-07T12:45:10;97243.36;;;28.70;21.01
47082;BME280;33066;49.296;14.470;2023-05-07T12:47:36;97236.78;;;28.53;21.05